Terminal Aerodrome Forecast
Issued by NWS Sterling, VA

Current Version | Previous Version | Graphics & Text | Print | Product List | Glossary On
Versions: 1 2 3 4 5 6 7 8 9 10 11 12 13 14 15 16 17 18 19
970
FTUS41 KLWX 200852 AAB
TAFMRB
TAF AMD
KMRB 200852Z 2009/2106 VRB03KT 1SM BR BKN060 WS020/23040KT
      TEMPO 2009/2011 1/4SM FG FEW003
     FM201200 20005KT 6SM BR BKN250
     FM201700 20009KT P6SM SCT250
     FM210500 20005KT P6SM SCT250=

USA.gov is the U.S. government's official web portal to all federal, state and local government web resources and services.